Time;durP1;ratioP1;P1;durP2;ratioP2;P2;SDS_P1;SDS_P2;PMS_P1;PMS_P2;Temp;Humidity;BMP_temperature;BMP_pressure;BME280_temperature;BME280_humidity;BME280_pressure;Samples;Min_cycle;Max_cycle;Signal;HPM_P1;HPM_P2
2023/04/03 00:01:22;;;;;;;;;12.50;9.50;;;;;;;;117163;1198;25715;-70
2023/04/03 00:03:51;;;;;;;;;16.67;13.33;;;;;;;;117161;1187;24784;-70
2023/04/03 00:06:20;;;;;;;;;12.00;11.00;;;;;;;;117164;1187;25071;-70
2023/04/03 00:08:48;;;;;;;;;12.00;9.00;;;;;;;;117219;1185;25242;-70
2023/04/03 00:11:18;;;;;;;;;9.00;9.00;;;;;;;;117142;1198;25455;-71
2023/04/03 00:13:46;;;;;;;;;14.50;11.50;;;;;;;;117155;1185;25037;-70
2023/04/03 00:16:15;;;;;;;;;11.00;10.00;;;;;;;;117200;1188;25554;-70
2023/04/03 00:18:44;;;;;;;;;19.67;13.00;;;;;;;;117126;1187;25412;-70
2023/04/03 00:21:13;;;;;;;;;12.50;11.50;;;;;;;;117191;1198;25227;-72
2023/04/03 00:23:41;;;;;;;;;;;;;;;;;;117186;1198;25536;-70
2023/04/03 00:26:10;;;;;;;;;10.00;10.00;;;;;;;;117111;1185;25168;-71
2023/04/03 00:28:39;;;;;;;;;13.67;11.33;;;;;;;;117190;1185;25082;-70
2023/04/03 00:31:08;;;;;;;;;10.00;10.00;;;;;;;;117175;1192;25322;-70
2023/04/03 00:33:36;;;;;;;;;8.00;7.00;;;;;;;;117121;1186;25468;-70
2023/04/03 00:36:07;;;;;;;;;9.00;9.00;;;;;;;;117129;1187;24923;-70
2023/04/03 00:38:36;;;;;;;;;10.00;9.00;;;;;;;;117120;1187;25246;-70
2023/04/03 00:41:05;;;;;;;;;16.00;13.00;;;;;;;;117142;1187;25675;-70
2023/04/03 00:43:34;;;;;;;;;11.00;9.00;;;;;;;;117142;1198;25678;-70
2023/04/03 00:46:03;;;;;;;;;10.00;7.67;;;;;;;;117116;1186;24852;-71
2023/04/03 00:48:33;;;;;;;;;11.00;11.00;;;;;;;;117041;1198;24735;-72
2023/04/03 00:51:04;;;;;;;;;13.00;10.00;;;;;;;;116962;1185;25160;-77
2023/04/03 00:53:42;;;;;;;;;11.33;11.00;;;;;;;;117027;1187;24924;-72
2023/04/03 00:56:13;;;;;;;;;6.50;6.50;;;;;;;;116967;1189;24744;-71
2023/04/03 00:58:49;;;;;;;;;10.00;10.00;;;;;;;;116926;1185;24810;-71
2023/04/03 01:01:22;;;;;;;;;9.00;9.00;;;;;;;;117050;1185;25544;-71
2023/04/03 01:03:50;;;;;;;;;10.67;10.00;;;;;;;;116993;1186;25542;-72
2023/04/03 01:06:31;;;;;;;;;12.50;12.50;;;;;;;;116933;1187;29050;-72
2023/04/03 01:09:00;;;;;;;;;12.00;11.50;;;;;;;;116940;1196;24843;-71
2023/04/03 01:11:28;;;;;;;;;12.50;12.50;;;;;;;;117037;1185;25586;-71
2023/04/03 01:13:56;;;;;;;;;9.00;9.00;;;;;;;;116975;1198;25139;-73
2023/04/03 01:16:25;;;;;;;;;11.00;11.00;;;;;;;;117008;1185;26443;-73
2023/04/03 01:18:53;;;;;;;;;12.00;10.50;;;;;;;;116992;1197;25769;-72
2023/04/03 01:21:37;;;;;;;;;12.50;9.50;;;;;;;;117015;1185;25315;-71
2023/04/03 01:24:23;;;;;;;;;15.00;10.00;;;;;;;;117059;1185;24775;-70
2023/04/03 01:26:52;;;;;;;;;12.50;12.50;;;;;;;;117025;1198;25602;-71
2023/04/03 01:29:20;;;;;;;;;9.50;9.50;;;;;;;;117037;1187;24704;-70
2023/04/03 01:31:51;;;;;;;;;11.00;11.00;;;;;;;;116962;1186;25412;-71
2023/04/03 01:34:21;;;;;;;;;9.00;8.00;;;;;;;;117012;1188;25321;-70
2023/04/03 01:36:50;;;;;;;;;10.00;8.67;;;;;;;;116998;1186;25676;-70
2023/04/03 01:39:19;;;;;;;;;13.00;9.00;;;;;;;;117091;1185;25230;-71
2023/04/03 01:41:48;;;;;;;;;13.00;10.00;;;;;;;;117003;1185;25001;-72
2023/04/03 01:44:17;;;;;;;;;15.00;10.00;;;;;;;;116963;1198;25370;-71
2023/04/03 01:46:46;;;;;;;;;10.00;10.00;;;;;;;;116963;1193;25367;-71
2023/04/03 01:49:14;;;;;;;;;13.00;11.00;;;;;;;;116956;1198;25581;-71
2023/04/03 01:51:43;;;;;;;;;20.00;15.00;;;;;;;;117033;1186;25167;-71
2023/04/03 01:54:11;;;;;;;;;9.00;9.00;;;;;;;;117028;1192;25691;-72
2023/04/03 01:56:40;;;;;;;;;7.50;6.00;;;;;;;;117014;1185;24748;-70
2023/04/03 01:59:09;;;;;;;;;11.00;11.00;;;;;;;;117087;1185;24833;-70
2023/04/03 02:01:37;;;;;;;;;8.00;6.00;;;;;;;;117101;1188;25560;-71
2023/04/03 02:04:06;;;;;;;;;8.67;8.33;;;;;;;;117081;1184;25274;-71
2023/04/03 02:06:35;;;;;;;;;8.50;7.00;;;;;;;;117112;1187;25470;-70
2023/04/03 02:09:04;;;;;;;;;8.00;8.00;;;;;;;;117106;1190;25133;-70
2023/04/03 02:11:32;;;;;;;;;10.00;10.00;;;;;;;;117114;1187;25607;-71
2023/04/03 02:14:00;;;;;;;;;12.00;10.00;;;;;;;;117095;1197;25484;-71
2023/04/03 02:16:30;;;;;;;;;8.33;8.33;;;;;;;;117052;1198;25183;-71
2023/04/03 02:18:59;;;;;;;;;10.00;9.00;;;;;;;;116989;1188;25613;-71
2023/04/03 02:21:27;;;;;;;;;13.00;9.00;;;;;;;;117054;1190;25161;-74
2023/04/03 02:23:56;;;;;;;;;7.67;6.67;;;;;;;;117063;1194;25362;-72
2023/04/03 02:26:25;;;;;;;;;9.00;8.00;;;;;;;;116969;1186;25609;-71
2023/04/03 02:28:54;;;;;;;;;12.00;8.50;;;;;;;;117015;1198;24749;-70
2023/04/03 02:31:23;;;;;;;;;5.00;5.00;;;;;;;;116998;1187;25657;-71
2023/04/03 02:33:52;;;;;;;;;9.50;9.50;;;;;;;;116982;1190;25004;-71
2023/04/03 02:36:20;;;;;;;;;10.00;8.50;;;;;;;;116977;1186;25475;-71
2023/04/03 02:38:49;;;;;;;;;8.50;8.50;;;;;;;;116984;1187;24863;-72
2023/04/03 02:41:17;;;;;;;;;11.00;8.00;;;;;;;;116972;1198;25475;-70
2023/04/03 02:43:46;;;;;;;;;11.50;9.00;;;;;;;;116979;1198;25558;-71
2023/04/03 02:46:15;;;;;;;;;10.00;10.00;;;;;;;;117014;1186;24845;-71
2023/04/03 02:48:44;;;;;;;;;10.50;10.50;;;;;;;;117011;1198;24824;-71
2023/04/03 02:51:12;;;;;;;;;7.67;7.33;;;;;;;;117001;1187;25480;-70
2023/04/03 02:53:40;;;;;;;;;12.00;7.00;;;;;;;;117106;1197;25597;-71
2023/04/03 02:56:09;;;;;;;;;5.00;5.00;;;;;;;;117007;1187;25427;-71
2023/04/03 02:58:38;;;;;;;;;9.00;9.00;;;;;;;;117022;1197;24982;-72
2023/04/03 03:01:06;;;;;;;;;9.00;8.00;;;;;;;;117019;1193;25210;-71
2023/04/03 03:03:35;;;;;;;;;6.00;5.00;;;;;;;;117029;1194;25423;-71
2023/04/03 03:06:05;;;;;;;;;10.00;8.00;;;;;;;;116992;1185;24924;-71
2023/04/03 03:08:35;;;;;;;;;9.50;8.00;;;;;;;;117026;1198;25221;-71
2023/04/03 03:11:04;;;;;;;;;7.00;7.00;;;;;;;;116994;1198;24928;-71
2023/04/03 03:13:33;;;;;;;;;8.00;8.00;;;;;;;;116982;1187;24959;-71
2023/04/03 03:16:02;;;;;;;;;6.67;6.33;;;;;;;;117032;1194;25720;-71
2023/04/03 03:18:31;;;;;;;;;9.33;7.33;;;;;;;;117029;1185;25539;-71
2023/04/03 03:21:01;;;;;;;;;9.00;9.00;;;;;;;;117082;1189;24792;-71
2023/04/03 03:23:32;;;;;;;;;8.50;8.50;;;;;;;;117039;1198;25152;-71
2023/04/03 03:26:06;;;;;;;;;8.00;8.00;;;;;;;;117077;1185;26189;-71
2023/04/03 03:28:36;;;;;;;;;10.00;10.00;;;;;;;;116979;1187;24853;-71
2023/04/03 03:31:05;;;;;;;;;10.00;9.00;;;;;;;;117065;1198;24874;-71
2023/04/03 03:33:34;;;;;;;;;9.50;8.00;;;;;;;;117079;1185;25137;-71
2023/04/03 03:36:03;;;;;;;;;5.67;5.67;;;;;;;;117032;1185;25594;-71
2023/04/03 03:38:31;;;;;;;;;10.00;6.50;;;;;;;;117061;1189;25690;-71
2023/04/03 03:41:00;;;;;;;;;9.00;7.00;;;;;;;;117051;1185;25140;-70
2023/04/03 03:43:28;;;;;;;;;8.33;7.33;;;;;;;;117009;1185;25078;-69
2023/04/03 03:45:57;;;;;;;;;11.00;8.00;;;;;;;;117021;1187;24928;-72
2023/04/03 03:48:25;;;;;;;;;8.00;8.00;;;;;;;;117043;1185;24930;-71
2023/04/03 03:50:53;;;;;;;;;9.00;9.00;;;;;;;;117102;1185;25393;-70
2023/04/03 03:53:22;;;;;;;;;6.00;6.00;;;;;;;;117087;1194;25076;-70
2023/04/03 03:55:50;;;;;;;;;9.00;9.00;;;;;;;;117098;1185;25533;-71
2023/04/03 03:58:19;;;;;;;;;6.00;4.00;;;;;;;;117054;1184;25068;-70
2023/04/03 04:00:47;;;;;;;;;3.00;3.00;;;;;;;;117015;1188;25716;-71
2023/04/03 04:03:16;;;;;;;;;10.00;8.00;;;;;;;;116972;1185;25521;-70
2023/04/03 04:05:44;;;;;;;;;8.00;7.50;;;;;;;;117019;1198;25302;-72
2023/04/03 04:08:13;;;;;;;;;9.00;9.00;;;;;;;;117008;1186;25450;-70
2023/04/03 04:10:41;;;;;;;;;8.00;6.00;;;;;;;;117033;1190;25080;-70
2023/04/03 04:13:10;;;;;;;;;6.00;5.00;;;;;;;;116998;1198;25249;-70
2023/04/03 04:15:38;;;;;;;;;8.00;8.00;;;;;;;;117063;1185;25072;-70
2023/04/03 04:18:07;;;;;;;;;8.50;7.50;;;;;;;;116996;1187;25455;-69
2023/04/03 04:20:36;;;;;;;;;8.50;8.00;;;;;;;;117005;1185;25611;-73
2023/04/03 04:23:04;;;;;;;;;8.00;8.00;;;;;;;;117010;1185;25569;-71
2023/04/03 04:25:33;;;;;;;;;9.00;9.00;;;;;;;;116981;1187;25315;-70
2023/04/03 04:28:02;;;;;;;;;9.00;8.00;;;;;;;;116954;1198;25183;-71
2023/04/03 04:30:30;;;;;;;;;7.25;7.25;;;;;;;;116959;1185;26187;-71
2023/04/03 04:32:59;;;;;;;;;8.00;8.00;;;;;;;;116988;1198;24977;-71
2023/04/03 04:35:28;;;;;;;;;6.00;6.00;;;;;;;;117011;1198;24960;-71
2023/04/03 04:37:57;;;;;;;;;7.00;7.00;;;;;;;;116964;1187;25034;-71
2023/04/03 04:40:26;;;;;;;;;7.00;7.00;;;;;;;;116988;1186;25273;-70
2023/04/03 04:42:54;;;;;;;;;7.50;5.50;;;;;;;;117028;1190;24925;-71
2023/04/03 04:45:23;;;;;;;;;7.67;7.00;;;;;;;;116943;1188;25027;-71
2023/04/03 04:47:52;;;;;;;;;7.50;6.50;;;;;;;;116937;1198;26269;-72
2023/04/03 04:50:21;;;;;;;;;10.50;8.00;;;;;;;;116897;1196;25199;-72
2023/04/03 04:52:49;;;;;;;;;7.00;7.00;;;;;;;;116974;1185;25364;-72
2023/04/03 04:55:18;;;;;;;;;8.00;7.67;;;;;;;;116966;1198;25092;-71
2023/04/03 04:57:46;;;;;;;;;6.00;6.00;;;;;;;;116991;1194;25182;-71
2023/04/03 05:00:15;;;;;;;;;8.00;6.50;;;;;;;;117015;1190;24798;-72
2023/04/03 05:02:44;;;;;;;;;7.00;6.00;;;;;;;;117123;1187;25162;-71
2023/04/03 05:05:13;;;;;;;;;8.50;7.00;;;;;;;;117096;1185;25550;-71
2023/04/03 05:07:42;;;;;;;;;6.00;6.00;;;;;;;;117022;1185;25047;-71
2023/04/03 05:10:10;;;;;;;;;5.00;4.50;;;;;;;;117109;1185;25247;-71
2023/04/03 05:12:39;;;;;;;;;6.00;6.00;;;;;;;;116934;1185;25466;-74
2023/04/03 05:15:08;;;;;;;;;8.00;7.00;;;;;;;;117031;1186;24777;-73
2023/04/03 05:17:37;;;;;;;;;6.00;6.00;;;;;;;;117042;1190;25351;-77
2023/04/03 05:20:06;;;;;;;;;8.00;8.00;;;;;;;;116997;1188;24863;-71
2023/04/03 05:22:34;;;;;;;;;6.50;6.50;;;;;;;;117012;1198;25413;-71
2023/04/03 05:25:04;;;;;;;;;6.00;6.00;;;;;;;;116994;1198;25555;-70
2023/04/03 05:27:32;;;;;;;;;6.00;6.00;;;;;;;;116995;1190;25306;-72
2023/04/03 05:30:02;;;;;;;;;9.00;8.00;;;;;;;;117011;1186;25586;-70
2023/04/03 05:32:30;;;;;;;;;8.33;7.00;;;;;;;;117017;1188;25579;-75
2023/04/03 05:34:59;;;;;;;;;3.50;3.50;;;;;;;;116992;1198;25239;-71
2023/04/03 05:37:28;;;;;;;;;7.00;7.00;;;;;;;;116935;1196;26689;-73
2023/04/03 05:39:57;;;;;;;;;6.50;6.50;;;;;;;;117023;1197;25613;-72
2023/04/03 05:42:25;;;;;;;;;5.00;5.00;;;;;;;;116987;1185;25333;-72
2023/04/03 05:44:54;;;;;;;;;11.00;8.00;;;;;;;;117042;1198;25621;-73
2023/04/03 05:47:23;;;;;;;;;7.00;6.00;;;;;;;;117020;1185;24710;-72
2023/04/03 05:49:51;;;;;;;;;7.00;5.50;;;;;;;;117050;1185;24967;-72
2023/04/03 05:52:27;;;;;;;;;9.00;6.00;;;;;;;;116986;1193;25200;-73
2023/04/03 05:54:56;;;;;;;;;8.00;7.00;;;;;;;;117011;1186;25649;-73
2023/04/03 05:57:25;;;;;;;;;6.00;6.00;;;;;;;;117030;1187;25527;-73
2023/04/03 05:59:53;;;;;;;;;7.00;5.00;;;;;;;;117029;1198;24746;-71
2023/04/03 06:02:23;;;;;;;;;6.00;6.00;;;;;;;;117077;1185;25555;-71
2023/04/03 06:04:52;;;;;;;;;7.00;6.67;;;;;;;;117008;1185;25348;-71
2023/04/03 06:07:23;;;;;;;;;8.00;6.00;;;;;;;;117003;1185;24775;-72
2023/04/03 06:09:52;;;;;;;;;5.00;5.00;;;;;;;;117065;1185;26083;-71
2023/04/03 06:12:20;;;;;;;;;7.00;7.00;;;;;;;;116980;1196;24942;-70
2023/04/03 06:14:49;;;;;;;;;7.00;6.00;;;;;;;;116981;1187;25489;-71
2023/04/03 06:17:18;;;;;;;;;5.00;5.00;;;;;;;;117047;1188;25284;-73
2023/04/03 06:19:47;;;;;;;;;6.00;5.50;;;;;;;;117106;1185;24984;-71
2023/04/03 06:22:15;;;;;;;;;6.00;6.00;;;;;;;;117014;1187;25190;-69
2023/04/03 06:24:44;;;;;;;;;8.00;6.00;;;;;;;;116993;1185;24837;-70
2023/04/03 06:27:12;;;;;;;;;8.00;7.00;;;;;;;;116995;1185;25486;-66
2023/04/03 06:29:41;;;;;;;;;7.00;7.00;;;;;;;;117027;1186;24996;-68
2023/04/03 06:32:09;;;;;;;;;6.00;5.00;;;;;;;;117002;1185;25358;-68
2023/04/03 06:34:38;;;;;;;;;11.00;8.00;;;;;;;;116999;1185;24721;-66
2023/04/03 06:37:06;;;;;;;;;12.67;9.33;;;;;;;;117021;1198;24753;-67
2023/04/03 06:39:35;;;;;;;;;12.00;8.00;;;;;;;;116975;1187;25168;-65
2023/04/03 06:42:04;;;;;;;;;13.00;7.00;;;;;;;;117072;1187;25575;-64
2023/04/03 06:44:34;;;;;;;;;12.33;7.00;;;;;;;;116998;1185;26024;-62
2023/04/03 06:47:03;;;;;;;;;12.50;11.00;;;;;;;;116934;1185;25478;-65
2023/04/03 06:49:31;;;;;;;;;14.00;10.50;;;;;;;;117023;1198;25313;-66
2023/04/03 06:52:00;;;;;;;;;10.67;9.33;;;;;;;;116993;1188;24781;-65
2023/04/03 06:54:29;;;;;;;;;12.50;8.50;;;;;;;;116975;1185;24724;-66
2023/04/03 06:56:58;;;;;;;;;5.00;5.00;;;;;;;;116959;1188;24988;-65
2023/04/03 06:59:26;;;;;;;;;14.00;11.00;;;;;;;;116983;1185;24849;-71
2023/04/03 07:01:55;;;;;;;;;15.67;11.67;;;;;;;;116961;1185;24927;-61
2023/04/03 07:04:24;;;;;;;;;12.00;8.00;;;;;;;;116954;1185;25182;-61
2023/04/03 07:06:53;;;;;;;;;13.00;10.00;;;;;;;;116986;1185;25303;-60
2023/04/03 07:09:21;;;;;;;;;8.50;8.50;;;;;;;;116969;1198;25263;-61
2023/04/03 07:11:50;;;;;;;;;12.00;8.00;;;;;;;;116923;1194;25261;-61
2023/04/03 07:14:19;;;;;;;;;14.00;9.00;;;;;;;;116927;1190;25728;-61
2023/04/03 07:16:47;;;;;;;;;9.50;8.00;;;;;;;;116975;1187;25092;-61
2023/04/03 07:19:17;;;;;;;;;10.00;9.00;;;;;;;;117023;1187;25137;-62
2023/04/03 07:21:46;;;;;;;;;13.00;9.50;;;;;;;;116976;1185;25267;-63
2023/04/03 07:24:14;;;;;;;;;11.00;9.00;;;;;;;;116984;1185;25318;-62
2023/04/03 07:26:45;;;;;;;;;12.00;10.00;;;;;;;;117001;1185;25344;-60
2023/04/03 07:29:13;;;;;;;;;9.00;8.00;;;;;;;;117015;1185;25497;-65
2023/04/03 07:31:42;;;;;;;;;9.50;8.00;;;;;;;;117009;1185;25635;-66
2023/04/03 07:34:11;;;;;;;;;11.50;9.50;;;;;;;;116978;1185;25614;-64
2023/04/03 07:36:40;;;;;;;;;15.00;11.00;;;;;;;;117164;1195;24799;-60
2023/04/03 07:39:09;;;;;;;;;10.00;9.00;;;;;;;;116992;1185;25397;-61
2023/04/03 07:41:37;;;;;;;;;12.00;11.00;;;;;;;;116977;1198;24998;-67
2023/04/03 07:44:09;;;;;;;;;14.00;10.00;;;;;;;;116950;1185;25440;-63
2023/04/03 07:46:38;;;;;;;;;16.67;8.67;;;;;;;;117024;1185;25537;-66
2023/04/03 07:49:06;;;;;;;;;;;;;;;;;;117029;1185;24851;-63
2023/04/03 07:51:35;;;;;;;;;14.00;9.00;;;;;;;;117031;1185;25409;-64
2023/04/03 07:54:04;;;;;;;;;12.00;9.00;;;;;;;;117104;1185;25538;-64
2023/04/03 07:56:33;;;;;;;;;12.00;10.00;;;;;;;;117093;1194;25170;-64
2023/04/03 07:59:02;;;;;;;;;14.00;11.00;;;;;;;;117098;1185;25479;-64
2023/04/03 08:01:32;;;;;;;;;12.00;9.00;;;;;;;;117103;1188;25163;-62
2023/04/03 08:04:00;;;;;;;;;17.00;12.00;;;;;;;;117121;1184;25029;-63
2023/04/03 08:06:34;;;;;;;;;13.00;8.00;;;;;;;;117115;1188;24899;-64
2023/04/03 08:09:16;;;;;;;;;14.00;11.50;;;;;;;;117124;1185;25603;-63
2023/04/03 08:11:45;;;;;;;;;14.50;12.00;;;;;;;;117081;1185;24912;-63
2023/04/03 08:14:18;;;;;;;;;12.00;10.00;;;;;;;;117093;1197;24907;-66
2023/04/03 08:16:48;;;;;;;;;13.00;11.00;;;;;;;;117076;1188;25236;-65
2023/04/03 08:19:17;;;;;;;;;14.00;8.00;;;;;;;;117054;1184;25021;-63
2023/04/03 08:21:54;;;;;;;;;17.00;9.00;;;;;;;;117110;1185;24726;-63
2023/04/03 08:24:23;;;;;;;;;10.00;9.00;;;;;;;;117093;1185;24736;-63
2023/04/03 08:26:51;;;;;;;;;15.50;9.00;;;;;;;;117106;1185;25180;-63
2023/04/03 08:29:21;;;;;;;;;;;;;;;;;;117066;1188;25030;-63
2023/04/03 08:31:50;;;;;;;;;13.25;9.75;;;;;;;;117098;1186;25252;-63
2023/04/03 08:34:19;;;;;;;;;7.50;7.50;;;;;;;;117113;1185;24842;-64
2023/04/03 08:36:48;;;;;;;;;7.00;6.00;;;;;;;;117118;1184;25181;-63
2023/04/03 08:39:16;;;;;;;;;9.67;8.67;;;;;;;;117087;1185;25496;-63
2023/04/03 08:41:47;;;;;;;;;12.00;8.00;;;;;;;;117063;1197;25596;-63
2023/04/03 08:44:31;;;;;;;;;12.00;8.00;;;;;;;;117050;1187;25241;-64
2023/04/03 08:47:06;;;;;;;;;8.00;7.00;;;;;;;;117085;1186;25565;-64
2023/04/03 08:49:40;;;;;;;;;8.00;6.00;;;;;;;;117108;1185;25524;-62
2023/04/03 08:52:17;;;;;;;;;11.00;9.00;;;;;;;;117074;1197;25047;-63
2023/04/03 08:54:54;;;;;;;;;8.00;8.00;;;;;;;;117046;1184;25177;-63
2023/04/03 08:57:31;;;;;;;;;8.00;7.67;;;;;;;;117093;1197;27131;-63
2023/04/03 09:00:01;;;;;;;;;;;;;;;;;;117070;1197;25141;-64
2023/04/03 09:02:38;;;;;;;;;5.00;5.00;;;;;;;;117097;1186;25700;-64
2023/04/03 09:05:17;;;;;;;;;11.33;9.33;;;;;;;;117141;1188;25780;-64
2023/04/03 09:08:05;;;;;;;;;11.00;7.50;;;;;;;;117099;1197;24757;-64
2023/04/03 09:10:37;;;;;;;;;10.00;10.00;;;;;;;;117100;1197;25354;-64
2023/04/03 09:13:18;;;;;;;;;7.50;5.50;;;;;;;;117059;1185;25370;-64
2023/04/03 09:15:47;;;;;;;;;10.00;10.00;;;;;;;;117055;1184;25391;-62
2023/04/03 09:18:20;;;;;;;;;8.00;4.00;;;;;;;;117128;1186;24987;-64
2023/04/03 09:21:04;;;;;;;;;10.67;8.33;;;;;;;;117089;1185;25630;-63
2023/04/03 09:23:43;;;;;;;;;7.00;7.00;;;;;;;;117107;1187;25108;-64
2023/04/03 09:26:39;;;;;;;;;10.00;7.00;;;;;;;;117049;1188;25058;-64
2023/04/03 09:29:09;;;;;;;;;8.00;8.00;;;;;;;;117082;1197;24957;-63
2023/04/03 09:31:40;;;;;;;;;8.00;7.00;;;;;;;;117080;1197;25376;-64
2023/04/03 09:34:31;;;;;;;;;10.00;10.00;;;;;;;;117059;1185;24808;-64
2023/04/03 09:37:08;;;;;;;;;11.00;8.00;;;;;;;;117009;1188;24999;-63
2023/04/03 09:39:54;;;;;;;;;11.67;6.67;;;;;;;;117103;1197;25390;-65
2023/04/03 09:42:25;;;;;;;;;8.00;7.00;;;;;;;;117017;1185;25164;-65
2023/04/03 09:45:04;;;;;;;;;10.00;7.00;;;;;;;;117085;1198;25490;-64
2023/04/03 09:47:34;;;;;;;;;10.50;8.50;;;;;;;;117067;1188;25411;-63
2023/04/03 09:50:15;;;;;;;;;10.00;8.00;;;;;;;;117080;1193;25047;-63
2023/04/03 09:52:45;;;;;;;;;;;;;;;;;;117044;1188;25663;-63
2023/04/03 09:55:18;;;;;;;;;9.00;8.00;;;;;;;;117087;1184;25258;-62
2023/04/03 09:57:48;;;;;;;;;11.00;8.00;;;;;;;;117084;1185;25453;-61
2023/04/03 10:00:21;;;;;;;;;9.00;8.00;;;;;;;;117083;1185;25198;-64
2023/04/03 10:02:55;;;;;;;;;10.50;8.00;;;;;;;;117082;1185;24890;-64
2023/04/03 10:05:42;;;;;;;;;8.50;7.00;;;;;;;;117123;1185;24798;-63
2023/04/03 10:08:10;;;;;;;;;9.00;7.00;;;;;;;;117050;1193;24835;-63
2023/04/03 10:10:48;;;;;;;;;11.50;9.50;;;;;;;;117111;1197;25581;-63
2023/04/03 10:13:20;;;;;;;;;6.00;6.00;;;;;;;;117088;1197;24865;-63
2023/04/03 10:16:13;;;;;;;;;9.00;8.00;;;;;;;;117097;1197;25252;-63
2023/04/03 10:19:01;;;;;;;;;9.50;8.00;;;;;;;;117043;1185;25279;-64
2023/04/03 10:21:45;;;;;;;;;10.00;6.00;;;;;;;;117108;1185;25627;-62
2023/04/03 10:24:24;;;;;;;;;10.00;9.00;;;;;;;;117073;1185;24782;-62
2023/04/03 10:27:05;;;;;;;;;7.00;7.00;;;;;;;;117103;1185;25123;-62
2023/04/03 10:29:36;;;;;;;;;10.00;8.00;;;;;;;;117071;1197;25132;-63
2023/04/03 10:32:20;;;;;;;;;12.00;9.33;;;;;;;;117104;1187;25295;-63
2023/04/03 10:34:58;;;;;;;;;4.00;4.00;;;;;;;;117063;1186;25619;-63
2023/04/03 10:38:09;;;;;;;;;8.50;6.00;;;;;;;;117113;1186;24764;-64
2023/04/03 10:41:15;;;;;;;;;10.00;7.00;;;;;;;;116918;1189;25658;-64
2023/04/03 10:43:59;;;;;;;;;7.00;6.00;;;;;;;;116988;1197;25278;-66
2023/04/03 10:46:35;;;;;;;;;6.00;6.00;;;;;;;;116982;1197;25492;-63
2023/04/03 10:49:10;;;;;;;;;8.00;6.00;;;;;;;;117100;1187;25697;-65
2023/04/03 10:51:48;;;;;;;;;10.00;7.50;;;;;;;;117067;1187;25465;-64
2023/04/03 10:54:31;;;;;;;;;9.00;8.00;;;;;;;;117089;1187;24744;-64
2023/04/03 10:57:06;;;;;;;;;7.00;5.33;;;;;;;;117083;1187;25565;-63
2023/04/03 10:59:51;;;;;;;;;8.00;7.00;;;;;;;;117061;1194;24792;-64
2023/04/03 11:02:27;;;;;;;;;11.00;9.00;;;;;;;;117082;1185;24849;-63
2023/04/03 11:05:11;;;;;;;;;9.00;8.50;;;;;;;;117057;1185;25452;-62
2023/04/03 11:07:45;;;;;;;;;6.00;6.00;;;;;;;;117081;1192;25390;-62
2023/04/03 11:10:21;;;;;;;;;8.00;6.50;;;;;;;;117105;1185;25261;-63
2023/04/03 11:12:53;;;;;;;;;6.00;4.00;;;;;;;;117066;1193;25043;-63
2023/04/03 11:15:23;;;;;;;;;10.00;8.50;;;;;;;;117085;1185;25516;-63
2023/04/03 11:17:58;;;;;;;;;2.67;2.00;;;;;;;;117072;1187;25147;-63
2023/04/03 11:20:32;;;;;;;;;8.00;8.00;;;;;;;;117059;1197;24741;-63
2023/04/03 11:23:22;;;;;;;;;12.00;9.00;;;;;;;;117094;1185;24956;-64
2023/04/03 11:25:53;;;;;;;;;10.67;9.67;;;;;;;;117094;1185;25176;-63
2023/04/03 11:28:21;;;;;;;;;11.50;10.00;;;;;;;;117055;1194;25010;-62
2023/04/03 11:31:09;;;;;;;;;13.00;8.67;;;;;;;;117053;1193;24890;-64
2023/04/03 11:34:00;;;;;;;;;7.00;6.00;;;;;;;;117119;1188;25117;-63
2023/04/03 11:36:40;;;;;;;;;9.00;8.00;;;;;;;;117047;1194;24690;-63
2023/04/03 11:39:24;;;;;;;;;13.50;9.00;;;;;;;;117040;1197;25624;-64
2023/04/03 11:41:53;;;;;;;;;9.00;7.00;;;;;;;;117078;1186;24873;-63
2023/04/03 11:44:38;;;;;;;;;8.00;8.00;;;;;;;;117069;1189;24866;-63
2023/04/03 11:47:12;;;;;;;;;7.00;7.00;;;;;;;;117090;1186;25139;-64
2023/04/03 11:49:52;;;;;;;;;7.00;7.00;;;;;;;;117088;1197;24937;-63
2023/04/03 11:52:39;;;;;;;;;6.00;5.50;;;;;;;;117051;1193;25445;-63
2023/04/03 11:55:23;;;;;;;;;9.00;8.50;;;;;;;;117058;1188;25584;-62
2023/04/03 11:57:57;;;;;;;;;6.00;5.00;;;;;;;;117107;1185;25378;-63
2023/04/03 12:00:46;;;;;;;;;8.00;7.00;;;;;;;;117078;1187;24745;-62
2023/04/03 12:03:24;;;;;;;;;6.00;6.00;;;;;;;;117088;1188;24998;-65
2023/04/03 12:06:05;;;;;;;;;7.00;7.00;;;;;;;;117070;1197;24874;-63
2023/04/03 12:08:40;;;;;;;;;8.00;8.00;;;;;;;;117043;1197;25265;-63
2023/04/03 12:11:12;;;;;;;;;7.00;7.00;;;;;;;;117087;1189;24846;-63
2023/04/03 12:13:42;;;;;;;;;7.50;7.50;;;;;;;;117068;1197;25423;-63
2023/04/03 12:16:48;;;;;;;;;11.75;7.75;;;;;;;;117085;1185;25062;-62
2023/04/03 12:19:32;;;;;;;;;9.50;7.00;;;;;;;;117066;1185;25434;-63
2023/04/03 12:22:15;;;;;;;;;10.50;8.50;;;;;;;;117104;1185;25529;-63
2023/04/03 12:24:50;;;;;;;;;10.33;9.00;;;;;;;;117089;1187;25217;-63
2023/04/03 12:27:38;;;;;;;;;10.00;9.00;;;;;;;;117088;1197;25365;-65
2023/04/03 12:30:26;;;;;;;;;10.00;7.50;;;;;;;;117087;1184;24675;-63
2023/04/03 12:33:03;;;;;;;;;13.67;8.00;;;;;;;;117117;1185;25352;-63
2023/04/03 12:35:55;;;;;;;;;8.33;6.33;;;;;;;;117058;1185;24963;-63
2023/04/03 12:39:15;;;;;;;;;10.67;8.00;;;;;;;;117057;1188;25169;-63
2023/04/03 12:41:58;;;;;;;;;9.00;8.00;;;;;;;;117115;1185;25697;-63
2023/04/03 12:44:52;;;;;;;;;12.00;10.00;;;;;;;;117062;1196;25008;-63
2023/04/03 12:47:32;;;;;;;;;9.67;8.67;;;;;;;;117045;1191;25333;-63
2023/04/03 12:50:03;;;;;;;;;9.00;9.00;;;;;;;;117086;1185;25119;-63
2023/04/03 12:52:37;;;;;;;;;7.00;7.00;;;;;;;;117076;1197;25816;-63
2023/04/03 12:55:16;;;;;;;;;9.00;7.00;;;;;;;;117077;1197;25230;-64
2023/04/03 12:57:45;;;;;;;;;8.00;8.00;;;;;;;;117063;1197;25364;-63
2023/04/03 13:00:33;;;;;;;;;12.00;12.00;;;;;;;;117096;1190;25163;-64
2023/04/03 13:03:04;;;;;;;;;9.00;9.00;;;;;;;;117103;1187;24832;-63
2023/04/03 13:05:33;;;;;;;;;9.00;7.50;;;;;;;;117066;1187;25523;-64
2023/04/03 13:08:09;;;;;;;;;9.33;7.00;;;;;;;;117016;1198;25629;-63
2023/04/03 13:10:52;;;;;;;;;8.00;8.00;;;;;;;;117061;1185;25549;-62
2023/04/03 13:13:22;;;;;;;;;9.00;7.50;;;;;;;;117104;1186;25385;-63
2023/04/03 13:15:52;;;;;;;;;9.33;7.33;;;;;;;;117110;1185;24975;-63
2023/04/03 13:18:28;;;;;;;;;8.50;7.00;;;;;;;;117086;1186;25346;-63
2023/04/03 13:21:01;;;;;;;;;7.00;7.00;;;;;;;;117093;1185;25147;-64
2023/04/03 13:23:31;;;;;;;;;8.33;8.33;;;;;;;;117051;1187;25148;-63
2023/04/03 13:26:03;;;;;;;;;7.50;7.50;;;;;;;;117099;1185;25349;-63
2023/04/03 13:28:32;;;;;;;;;8.00;8.00;;;;;;;;117088;1185;25525;-62
2023/04/03 13:31:03;;;;;;;;;11.00;8.50;;;;;;;;117130;1197;25525;-63
2023/04/03 13:33:37;;;;;;;;;9.00;7.00;;;;;;;;117071;1187;25578;-63
2023/04/03 13:36:36;;;;;;;;;10.00;10.00;;;;;;;;117071;1190;24743;-62
2023/04/03 13:39:10;;;;;;;;;8.50;8.50;;;;;;;;117095;1188;25149;-62
2023/04/03 13:41:41;;;;;;;;;10.00;8.00;;;;;;;;117066;1185;25349;-64
2023/04/03 13:44:16;;;;;;;;;9.00;7.33;;;;;;;;117102;1185;25851;-63
2023/04/03 13:46:45;;;;;;;;;12.00;11.00;;;;;;;;117074;1185;25178;-63
2023/04/03 13:49:27;;;;;;;;;10.00;7.50;;;;;;;;117115;1185;25117;-63
2023/04/03 13:51:57;;;;;;;;;8.00;7.67;;;;;;;;117046;1185;24852;-63
2023/04/03 13:54:38;;;;;;;;;8.00;8.00;;;;;;;;117079;1188;25179;-64
2023/04/03 13:57:16;;;;;;;;;9.00;7.50;;;;;;;;117059;1186;25196;-63
2023/04/03 13:59:44;;;;;;;;;10.00;9.00;;;;;;;;117099;1188;24882;-65
2023/04/03 14:02:21;;;;;;;;;9.00;8.50;;;;;;;;117053;1185;25131;-62
2023/04/03 14:04:57;;;;;;;;;6.50;5.00;;;;;;;;117089;1185;25606;-63
2023/04/03 14:07:27;;;;;;;;;9.00;8.00;;;;;;;;117067;1188;25593;-63
2023/04/03 14:09:55;;;;;;;;;7.00;7.00;;;;;;;;116955;1187;24883;-62
2023/04/03 14:12:37;;;;;;;;;10.00;10.00;;;;;;;;117048;1197;26307;-63
2023/04/03 14:15:20;;;;;;;;;13.00;8.00;;;;;;;;117073;1197;25260;-63
2023/04/03 14:17:48;;;;;;;;;9.50;8.50;;;;;;;;117094;1197;24952;-62
2023/04/03 14:20:21;;;;;;;;;10.00;8.00;;;;;;;;117097;1185;25040;-63
2023/04/03 14:22:51;;;;;;;;;13.00;8.00;;;;;;;;117045;1185;24861;-63
2023/04/03 14:25:20;;;;;;;;;7.00;6.00;;;;;;;;117074;1187;25332;-63
2023/04/03 14:27:50;;;;;;;;;6.00;6.00;;;;;;;;117090;1197;25063;-62
2023/04/03 14:30:27;;;;;;;;;7.00;6.00;;;;;;;;117052;1185;25432;-63
2023/04/03 14:32:56;;;;;;;;;8.00;8.00;;;;;;;;117100;1188;24703;-63
2023/04/03 14:35:25;;;;;;;;;10.00;8.00;;;;;;;;119039;1189;24735;-63
2023/04/03 14:37:55;;;;;;;;;7.00;7.00;;;;;;;;118867;1197;25055;-63
2023/04/03 14:40:27;;;;;;;;;7.00;7.00;;;;;;;;119027;1189;24899;-64
2023/04/03 14:42:57;;;;;;;;;8.00;7.00;;;;;;;;119041;1197;25484;-63
2023/04/03 14:45:26;;;;;;;;;10.00;7.00;;;;;;;;119042;1197;25405;-63
2023/04/03 14:47:55;;;;;;;;;11.00;7.00;;;;;;;;119036;1197;24916;-63
2023/04/03 14:50:27;;;;;;;;;7.00;7.00;;;;;;;;118995;1197;25489;-64
2023/04/03 14:52:58;;;;;;;;;8.00;8.00;;;;;;;;119030;1197;25032;-64
2023/04/03 14:55:27;;;;;;;;;7.00;7.00;;;;;;;;118877;1197;24871;-63